Portada
METAR-TAF:

METAR-TAF

Aeropuertos :

Aeropuerto Internacional de Baréin

Baréin, Bahréin

latitud: 26-16N, longitud: 050-39E, altitud: 2 m

Observación

El informe se hizo hace 28 minutos, a las 10:30 UTC
Viento 18 kt del norte-noroeste
Temperatura 21°C
Humedad 46%
Presión 1011 hPa
Visibilidad 10 km o más
Escasas nubes a una altura de 2500 ft

METAR: OBBI 191030Z 34018KT 9999 FEW025 21/09 Q1011 NOSIG

Hora: 13:58 (10:58 UTC)

Pronóstico

El informe se hizo hace 5 horas y 58 minutos, a las 05:00 UTC
Pronóstico válido del 19 a las 06 UTC al 20 a las 12 UTC
Viento 12 kt del norte-noroeste
Visibilidad 10 km o más
sin nubes por debajo de 1500 m y sin presencia de cumulonimbus.
Evolucionando progresivamente
del 19 a las 14 UTC al 19 a las 16 UTC
Viento 17 kt del noroeste con ráfagas de 27 kt
Visibilidad 10 km o más
Escasas nubes a una altura de 3000 ft

TAF: OBBI 190500Z 1906/2012 34012KT CAVOK BECMG 1914/1916 32017G27KT 9999 FEW030

Observaciones y pronósticos meteorológicos de más de 4000 aeropuertos (mensajes METAR y TAF).

Los puntos amarillos y rojos representan las estaciones disponibles.

Ponga el ratón en el punto deseado para ver el nombre de la estación.

Haga clic para ver las observaciones y los pronósticos meteorológicos.

Para cambiar el mapa : haga clic en los botones verdes con una cruz de color negro para hacer un zoom, en el botón verde con un guión para alejar o en las flechas verdes para mapas adyacentes.


METAR-TAF: